sensor_id;sensor_type;location;lat;lon;timestamp;P1;durP1;ratioP1;P2;durP2;ratioP2
32455;SDS011;18912;43.270;27.942;2022-10-18T00:01:11;17.23;;;5.37;;
32455;SDS011;18912;43.270;27.942;2022-10-18T00:03:36;14.13;;;5.53;;
32455;SDS011;18912;43.270;27.942;2022-10-18T00:06:02;8.47;;;5.33;;
32455;SDS011;18912;43.270;27.942;2022-10-18T00:10:54;11.50;;;5.85;;
32455;SDS011;18912;43.270;27.942;2022-10-18T00:13:20;10.37;;;5.63;;
32455;SDS011;18912;43.270;27.942;2022-10-18T00:15:55;18.02;;;6.38;;
32455;SDS011;18912;43.270;27.942;2022-10-18T00:18:22;16.70;;;6.25;;
32455;SDS011;18912;43.270;27.942;2022-10-18T00:21:02;19.23;;;7.72;;
32455;SDS011;18912;43.270;27.942;2022-10-18T00:23:30;28.02;;;7.80;;
32455;SDS011;18912;43.270;27.942;2022-10-18T00:25:57;21.60;;;9.23;;
32455;SDS011;18912;43.270;27.942;2022-10-18T00:28:28;20.25;;;9.68;;
32455;SDS011;18912;43.270;27.942;2022-10-18T00:30:53;20.90;;;10.53;;
32455;SDS011;18912;43.270;27.942;2022-10-18T00:33:19;21.90;;;11.67;;
32455;SDS011;18912;43.270;27.942;2022-10-18T00:35:44;29.63;;;9.57;;
32455;SDS011;18912;43.270;27.942;2022-10-18T00:38:10;53.67;;;16.93;;
32455;SDS011;18912;43.270;27.942;2022-10-18T00:40:35;39.20;;;16.10;;
32455;SDS011;18912;43.270;27.942;2022-10-18T00:43:01;20.97;;;9.10;;
32455;SDS011;18912;43.270;27.942;2022-10-18T00:45:26;18.77;;;7.60;;
32455;SDS011;18912;43.270;27.942;2022-10-18T00:47:53;15.07;;;8.20;;
32455;SDS011;18912;43.270;27.942;2022-10-18T00:50:24;22.15;;;8.52;;
32455;SDS011;18912;43.270;27.942;2022-10-18T00:52:52;18.40;;;8.45;;
32455;SDS011;18912;43.270;27.942;2022-10-18T00:55:20;20.88;;;9.20;;
32455;SDS011;18912;43.270;27.942;2022-10-18T00:57:46;20.20;;;7.53;;
32455;SDS011;18912;43.270;27.942;2022-10-18T01:00:13;25.02;;;9.68;;
32455;SDS011;18912;43.270;27.942;2022-10-18T01:02:40;29.70;;;11.73;;
32455;SDS011;18912;43.270;27.942;2022-10-18T01:05:07;25.10;;;10.48;;
32455;SDS011;18912;43.270;27.942;2022-10-18T01:07:48;25.25;;;9.23;;
32455;SDS011;18912;43.270;27.942;2022-10-18T01:10:29;22.75;;;9.00;;
32455;SDS011;18912;43.270;27.942;2022-10-18T01:13:34;32.25;;;9.65;;
32455;SDS011;18912;43.270;27.942;2022-10-18T01:22:12;25.75;;;10.00;;
32455;SDS011;18912;43.270;27.942;2022-10-18T01:27:34;28.95;;;9.55;;
32455;SDS011;18912;43.270;27.942;2022-10-18T01:32:57;20.38;;;8.70;;
32455;SDS011;18912;43.270;27.942;2022-10-18T01:35:31;22.65;;;9.23;;
32455;SDS011;18912;43.270;27.942;2022-10-18T01:38:02;26.02;;;9.55;;
32455;SDS011;18912;43.270;27.942;2022-10-18T01:40:30;18.70;;;8.77;;
32455;SDS011;18912;43.270;27.942;2022-10-18T01:42:59;17.20;;;8.82;;
32455;SDS011;18912;43.270;27.942;2022-10-18T01:45:26;21.67;;;9.52;;
32455;SDS011;18912;43.270;27.942;2022-10-18T01:50:28;22.08;;;9.65;;
32455;SDS011;18912;43.270;27.942;2022-10-18T01:52:58;22.38;;;9.52;;
32455;SDS011;18912;43.270;27.942;2022-10-18T01:55:25;22.02;;;9.20;;
32455;SDS011;18912;43.270;27.942;2022-10-18T01:58:17;20.58;;;9.68;;
32455;SDS011;18912;43.270;27.942;2022-10-18T02:00:49;20.60;;;9.07;;
32455;SDS011;18912;43.270;27.942;2022-10-18T02:03:24;21.40;;;9.48;;
32455;SDS011;18912;43.270;27.942;2022-10-18T02:08:49;15.38;;;8.63;;
32455;SDS011;18912;43.270;27.942;2022-10-18T02:11:27;16.83;;;8.57;;
32455;SDS011;18912;43.270;27.942;2022-10-18T02:14:16;17.85;;;8.40;;
32455;SDS011;18912;43.270;27.942;2022-10-18T02:16:52;24.60;;;9.02;;
32455;SDS011;18912;43.270;27.942;2022-10-18T02:19:23;17.13;;;7.07;;
32455;SDS011;18912;43.270;27.942;2022-10-18T02:21:52;17.90;;;7.80;;
32455;SDS011;18912;43.270;27.942;2022-10-18T02:24:19;19.60;;;7.38;;
32455;SDS011;18912;43.270;27.942;2022-10-18T02:26:47;16.33;;;8.07;;
32455;SDS011;18912;43.270;27.942;2022-10-18T02:29:13;15.90;;;7.77;;
32455;SDS011;18912;43.270;27.942;2022-10-18T02:31:42;15.57;;;8.10;;
32455;SDS011;18912;43.270;27.942;2022-10-18T02:34:20;17.63;;;8.55;;
32455;SDS011;18912;43.270;27.942;2022-10-18T02:36:56;18.05;;;8.45;;
32455;SDS011;18912;43.270;27.942;2022-10-18T02:39:27;20.60;;;8.77;;
32455;SDS011;18912;43.270;27.942;2022-10-18T02:41:58;17.27;;;8.43;;
32455;SDS011;18912;43.270;27.942;2022-10-18T02:44:24;13.60;;;6.60;;
32455;SDS011;18912;43.270;27.942;2022-10-18T02:46:50;19.58;;;8.82;;
32455;SDS011;18912;43.270;27.942;2022-10-18T02:49:16;16.35;;;8.35;;
32455;SDS011;18912;43.270;27.942;2022-10-18T02:51:42;13.20;;;6.47;;
32455;SDS011;18912;43.270;27.942;2022-10-18T02:54:07;20.23;;;9.17;;
32455;SDS011;18912;43.270;27.942;2022-10-18T02:56:33;19.90;;;9.37;;
32455;SDS011;18912;43.270;27.942;2022-10-18T02:58:59;20.58;;;9.00;;
32455;SDS011;18912;43.270;27.942;2022-10-18T03:01:25;18.60;;;9.20;;
32455;SDS011;18912;43.270;27.942;2022-10-18T03:03:50;20.03;;;9.03;;
32455;SDS011;18912;43.270;27.942;2022-10-18T03:06:16;23.57;;;9.13;;
32455;SDS011;18912;43.270;27.942;2022-10-18T03:08:41;18.57;;;8.90;;
32455;SDS011;18912;43.270;27.942;2022-10-18T03:11:07;29.63;;;8.87;;
32455;SDS011;18912;43.270;27.942;2022-10-18T03:13:32;16.23;;;8.90;;
32455;SDS011;18912;43.270;27.942;2022-10-18T03:15:58;22.87;;;9.87;;
32455;SDS011;18912;43.270;27.942;2022-10-18T03:18:24;17.95;;;8.65;;
32455;SDS011;18912;43.270;27.942;2022-10-18T03:20:50;16.87;;;9.17;;
32455;SDS011;18912;43.270;27.942;2022-10-18T03:23:15;15.63;;;8.50;;
32455;SDS011;18912;43.270;27.942;2022-10-18T03:25:41;16.03;;;9.23;;
32455;SDS011;18912;43.270;27.942;2022-10-18T03:28:06;17.10;;;8.80;;
32455;SDS011;18912;43.270;27.942;2022-10-18T03:30:32;22.93;;;10.27;;
32455;SDS011;18912;43.270;27.942;2022-10-18T03:32:58;20.13;;;8.47;;
32455;SDS011;18912;43.270;27.942;2022-10-18T03:35:23;21.00;;;9.80;;
32455;SDS011;18912;43.270;27.942;2022-10-18T03:37:49;23.83;;;8.73;;
32455;SDS011;18912;43.270;27.942;2022-10-18T03:40:14;18.57;;;9.07;;
32455;SDS011;18912;43.270;27.942;2022-10-18T03:42:40;12.70;;;6.67;;
32455;SDS011;18912;43.270;27.942;2022-10-18T03:45:06;18.40;;;8.80;;
32455;SDS011;18912;43.270;27.942;2022-10-18T03:47:31;21.83;;;8.07;;
32455;SDS011;18912;43.270;27.942;2022-10-18T03:49:57;15.83;;;9.23;;
32455;SDS011;18912;43.270;27.942;2022-10-18T03:52:22;20.07;;;9.43;;
32455;SDS011;18912;43.270;27.942;2022-10-18T03:54:48;18.03;;;8.00;;
32455;SDS011;18912;43.270;27.942;2022-10-18T03:57:13;17.43;;;8.77;;
32455;SDS011;18912;43.270;27.942;2022-10-18T03:59:39;13.63;;;8.83;;
32455;SDS011;18912;43.270;27.942;2022-10-18T04:02:04;19.27;;;9.77;;
32455;SDS011;18912;43.270;27.942;2022-10-18T04:04:30;23.00;;;9.77;;
32455;SDS011;18912;43.270;27.942;2022-10-18T04:06:55;14.30;;;6.33;;
32455;SDS011;18912;43.270;27.942;2022-10-18T04:09:21;16.77;;;8.57;;
32455;SDS011;18912;43.270;27.942;2022-10-18T04:11:48;19.47;;;8.67;;
32455;SDS011;18912;43.270;27.942;2022-10-18T04:14:14;14.50;;;8.93;;
32455;SDS011;18912;43.270;27.942;2022-10-18T04:16:40;20.90;;;9.37;;
32455;SDS011;18912;43.270;27.942;2022-10-18T04:19:06;26.03;;;9.57;;
32455;SDS011;18912;43.270;27.942;2022-10-18T04:21:31;22.67;;;10.33;;
32455;SDS011;18912;43.270;27.942;2022-10-18T04:23:56;24.57;;;11.10;;
32455;SDS011;18912;43.270;27.942;2022-10-18T04:26:22;23.47;;;10.17;;
32455;SDS011;18912;43.270;27.942;2022-10-18T04:28:47;28.73;;;12.27;;
32455;SDS011;18912;43.270;27.942;2022-10-18T04:31:13;34.77;;;13.17;;
32455;SDS011;18912;43.270;27.942;2022-10-18T04:33:38;25.93;;;12.50;;
32455;SDS011;18912;43.270;27.942;2022-10-18T04:36:04;34.90;;;12.27;;
32455;SDS011;18912;43.270;27.942;2022-10-18T04:38:30;24.17;;;11.17;;
32455;SDS011;18912;43.270;27.942;2022-10-18T04:40:55;16.67;;;8.23;;
32455;SDS011;18912;43.270;27.942;2022-10-18T04:43:20;25.00;;;11.50;;
32455;SDS011;18912;43.270;27.942;2022-10-18T04:45:46;23.23;;;11.03;;
32455;SDS011;18912;43.270;27.942;2022-10-18T04:48:12;27.47;;;11.90;;
32455;SDS011;18912;43.270;27.942;2022-10-18T04:50:41;29.30;;;11.27;;
32455;SDS011;18912;43.270;27.942;2022-10-18T04:53:06;19.03;;;8.70;;
32455;SDS011;18912;43.270;27.942;2022-10-18T04:55:32;20.87;;;12.10;;
32455;SDS011;18912;43.270;27.942;2022-10-18T04:57:57;24.53;;;12.87;;
32455;SDS011;18912;43.270;27.942;2022-10-18T05:00:23;36.50;;;12.77;;
32455;SDS011;18912;43.270;27.942;2022-10-18T05:02:49;18.25;;;11.80;;
32455;SDS011;18912;43.270;27.942;2022-10-18T05:05:19;31.17;;;12.15;;
32455;SDS011;18912;43.270;27.942;2022-10-18T05:07:45;26.97;;;11.33;;
32455;SDS011;18912;43.270;27.942;2022-10-18T05:10:10;40.03;;;12.20;;
32455;SDS011;18912;43.270;27.942;2022-10-18T05:12:35;16.43;;;7.87;;
32455;SDS011;18912;43.270;27.942;2022-10-18T05:15:01;24.27;;;11.60;;
32455;SDS011;18912;43.270;27.942;2022-10-18T05:17:26;25.23;;;13.47;;
32455;SDS011;18912;43.270;27.942;2022-10-18T05:19:52;34.17;;;13.33;;
32455;SDS011;18912;43.270;27.942;2022-10-18T05:22:17;21.40;;;12.73;;
32455;SDS011;18912;43.270;27.942;2022-10-18T05:24:43;27.23;;;12.43;;
32455;SDS011;18912;43.270;27.942;2022-10-18T05:27:08;34.70;;;12.10;;
32455;SDS011;18912;43.270;27.942;2022-10-18T05:29:35;30.10;;;11.68;;
32455;SDS011;18912;43.270;27.942;2022-10-18T05:32:00;28.60;;;12.90;;
32455;SDS011;18912;43.270;27.942;2022-10-18T05:34:26;22.87;;;12.23;;
32455;SDS011;18912;43.270;27.942;2022-10-18T05:36:55;30.20;;;11.48;;
32455;SDS011;18912;43.270;27.942;2022-10-18T05:39:21;26.63;;;11.70;;
32455;SDS011;18912;43.270;27.942;2022-10-18T05:41:47;20.23;;;11.13;;
32455;SDS011;18912;43.270;27.942;2022-10-18T05:44:12;23.00;;;10.03;;
32455;SDS011;18912;43.270;27.942;2022-10-18T05:46:38;17.83;;;10.37;;
32455;SDS011;18912;43.270;27.942;2022-10-18T05:49:04;18.42;;;9.75;;
32455;SDS011;18912;43.270;27.942;2022-10-18T05:51:29;22.13;;;9.80;;
32455;SDS011;18912;43.270;27.942;2022-10-18T05:53:55;19.37;;;10.27;;
32455;SDS011;18912;43.270;27.942;2022-10-18T05:56:20;19.27;;;8.83;;
32455;SDS011;18912;43.270;27.942;2022-10-18T05:58:48;14.63;;;10.00;;
32455;SDS011;18912;43.270;27.942;2022-10-18T06:01:15;16.27;;;8.77;;
32455;SDS011;18912;43.270;27.942;2022-10-18T06:03:41;18.27;;;8.63;;
32455;SDS011;18912;43.270;27.942;2022-10-18T06:06:08;14.90;;;8.17;;
32455;SDS011;18912;43.270;27.942;2022-10-18T06:08:35;15.70;;;8.38;;
32455;SDS011;18912;43.270;27.942;2022-10-18T06:11:08;22.42;;;7.88;;
32455;SDS011;18912;43.270;27.942;2022-10-18T06:13:43;15.98;;;8.30;;
32455;SDS011;18912;43.270;27.942;2022-10-18T06:16:11;13.85;;;7.57;;
32455;SDS011;18912;43.270;27.942;2022-10-18T06:18:38;22.45;;;8.40;;
32455;SDS011;18912;43.270;27.942;2022-10-18T06:21:04;12.50;;;7.15;;
32455;SDS011;18912;43.270;27.942;2022-10-18T06:23:30;19.43;;;7.47;;
32455;SDS011;18912;43.270;27.942;2022-10-18T06:26:03;10.90;;;6.33;;
32455;SDS011;18912;43.270;27.942;2022-10-18T06:28:30;15.50;;;6.60;;
32455;SDS011;18912;43.270;27.942;2022-10-18T06:30:55;15.90;;;5.90;;
32455;SDS011;18912;43.270;27.942;2022-10-18T06:33:22;21.52;;;6.63;;
32455;SDS011;18912;43.270;27.942;2022-10-18T06:35:57;14.80;;;6.80;;
32455;SDS011;18912;43.270;27.942;2022-10-18T06:38:31;11.02;;;5.63;;
32455;SDS011;18912;43.270;27.942;2022-10-18T06:40:57;14.88;;;5.45;;
32455;SDS011;18912;43.270;27.942;2022-10-18T06:43:24;11.02;;;5.72;;
32455;SDS011;18912;43.270;27.942;2022-10-18T06:45:50;8.65;;;5.10;;
32455;SDS011;18912;43.270;27.942;2022-10-18T06:48:16;8.80;;;5.35;;
32455;SDS011;18912;43.270;27.942;2022-10-18T06:53:14;11.65;;;6.35;;
32455;SDS011;18912;43.270;27.942;2022-10-18T06:55:40;13.37;;;6.07;;
32455;SDS011;18912;43.270;27.942;2022-10-18T06:58:05;11.93;;;5.83;;
32455;SDS011;18912;43.270;27.942;2022-10-18T07:00:31;11.53;;;5.33;;
32455;SDS011;18912;43.270;27.942;2022-10-18T07:02:56;8.97;;;4.97;;
32455;SDS011;18912;43.270;27.942;2022-10-18T07:05:22;10.50;;;4.03;;
32455;SDS011;18912;43.270;27.942;2022-10-18T07:07:47;13.50;;;5.03;;
32455;SDS011;18912;43.270;27.942;2022-10-18T07:10:13;12.47;;;4.20;;
32455;SDS011;18912;43.270;27.942;2022-10-18T07:12:38;8.37;;;4.23;;
32455;SDS011;18912;43.270;27.942;2022-10-18T07:15:04;12.50;;;3.00;;
32455;SDS011;18912;43.270;27.942;2022-10-18T07:17:30;6.53;;;2.92;;
32455;SDS011;18912;43.270;27.942;2022-10-18T07:19:55;6.93;;;2.97;;
32455;SDS011;18912;43.270;27.942;2022-10-18T07:22:21;12.47;;;3.47;;
32455;SDS011;18912;43.270;27.942;2022-10-18T07:24:46;8.33;;;3.20;;
32455;SDS011;18912;43.270;27.942;2022-10-18T07:27:12;8.57;;;3.73;;
32455;SDS011;18912;43.270;27.942;2022-10-18T07:29:37;9.67;;;3.80;;
32455;SDS011;18912;43.270;27.942;2022-10-18T07:32:03;6.78;;;3.65;;
32455;SDS011;18912;43.270;27.942;2022-10-18T07:34:29;9.70;;;3.57;;
32455;SDS011;18912;43.270;27.942;2022-10-18T07:36:55;11.03;;;3.27;;
32455;SDS011;18912;43.270;27.942;2022-10-18T07:39:20;7.17;;;3.43;;
32455;SDS011;18912;43.270;27.942;2022-10-18T07:41:46;12.27;;;3.10;;
32455;SDS011;18912;43.270;27.942;2022-10-18T07:44:11;7.43;;;2.90;;
32455;SDS011;18912;43.270;27.942;2022-10-18T07:46:37;14.60;;;3.80;;
32455;SDS011;18912;43.270;27.942;2022-10-18T07:49:03;4.70;;;3.05;;
32455;SDS011;18912;43.270;27.942;2022-10-18T07:51:28;9.03;;;3.20;;
32455;SDS011;18912;43.270;27.942;2022-10-18T07:53:57;11.57;;;3.03;;
32455;SDS011;18912;43.270;27.942;2022-10-18T07:56:23;9.70;;;3.33;;
32455;SDS011;18912;43.270;27.942;2022-10-18T07:58:52;9.83;;;3.63;;
32455;SDS011;18912;43.270;27.942;2022-10-18T08:01:20;7.25;;;2.60;;
32455;SDS011;18912;43.270;27.942;2022-10-18T08:03:47;14.18;;;2.95;;
32455;SDS011;18912;43.270;27.942;2022-10-18T08:06:14;8.03;;;2.60;;
32455;SDS011;18912;43.270;27.942;2022-10-18T08:08:42;11.05;;;2.78;;
32455;SDS011;18912;43.270;27.942;2022-10-18T08:11:09;6.85;;;2.53;;
32455;SDS011;18912;43.270;27.942;2022-10-18T08:13:36;5.70;;;2.70;;
32455;SDS011;18912;43.270;27.942;2022-10-18T08:16:04;5.50;;;2.93;;
32455;SDS011;18912;43.270;27.942;2022-10-18T08:18:34;12.25;;;2.92;;
32455;SDS011;18912;43.270;27.942;2022-10-18T08:23:27;4.75;;;2.42;;
32455;SDS011;18912;43.270;27.942;2022-10-18T08:25:52;4.73;;;2.10;;
32455;SDS011;18912;43.270;27.942;2022-10-18T08:28:18;6.73;;;2.10;;
32455;SDS011;18912;43.270;27.942;2022-10-18T08:30:43;5.33;;;2.13;;
32455;SDS011;18912;43.270;27.942;2022-10-18T08:33:09;12.00;;;2.10;;
32455;SDS011;18912;43.270;27.942;2022-10-18T08:35:34;3.43;;;2.13;;
32455;SDS011;18912;43.270;27.942;2022-10-18T08:38:00;4.10;;;2.10;;
32455;SDS011;18912;43.270;27.942;2022-10-18T08:40:25;4.03;;;2.33;;
32455;SDS011;18912;43.270;27.942;2022-10-18T08:43:06;7.50;;;1.92;;
32455;SDS011;18912;43.270;27.942;2022-10-18T08:45:40;5.53;;;1.90;;
32455;SDS011;18912;43.270;27.942;2022-10-18T08:48:31;7.55;;;2.22;;
32455;SDS011;18912;43.270;27.942;2022-10-18T08:50:57;8.77;;;2.10;;
32455;SDS011;18912;43.270;27.942;2022-10-18T08:58:30;6.70;;;1.70;;
32455;SDS011;18912;43.270;27.942;2022-10-18T09:23:29;6.95;;;2.25;;
32455;SDS011;18912;43.270;27.942;2022-10-18T09:34:18;9.97;;;2.40;;
32455;SDS011;18912;43.270;27.942;2022-10-18T09:36:52;8.02;;;2.03;;
32455;SDS011;18912;43.270;27.942;2022-10-18T09:39:23;7.30;;;1.90;;
32455;SDS011;18912;43.270;27.942;2022-10-18T09:44:44;5.72;;;1.90;;
32455;SDS011;18912;43.270;27.942;2022-10-18T09:49:51;5.82;;;1.63;;
32455;SDS011;18912;43.270;27.942;2022-10-18T09:52:26;7.93;;;2.28;;
32455;SDS011;18912;43.270;27.942;2022-10-18T09:54:59;5.10;;;1.60;;
32455;SDS011;18912;43.270;27.942;2022-10-18T09:57:31;10.02;;;1.80;;
32455;SDS011;18912;43.270;27.942;2022-10-18T10:00:21;5.22;;;1.65;;
32455;SDS011;18912;43.270;27.942;2022-10-18T10:02:53;2.92;;;1.70;;
32455;SDS011;18912;43.270;27.942;2022-10-18T10:05:19;6.70;;;1.83;;
32455;SDS011;18912;43.270;27.942;2022-10-18T10:07:45;5.03;;;1.83;;
32455;SDS011;18912;43.270;27.942;2022-10-18T10:10:19;11.63;;;2.35;;
32455;SDS011;18912;43.270;27.942;2022-10-18T10:12:47;8.75;;;1.38;;
32455;SDS011;18912;43.270;27.942;2022-10-18T10:15:26;5.25;;;1.33;;
32455;SDS011;18912;43.270;27.942;2022-10-18T10:17:59;1.90;;;1.07;;
32455;SDS011;18912;43.270;27.942;2022-10-18T10:20:32;6.03;;;1.52;;
32455;SDS011;18912;43.270;27.942;2022-10-18T10:23:08;5.88;;;1.40;;
32455;SDS011;18912;43.270;27.942;2022-10-18T10:25:40;4.90;;;1.20;;
32455;SDS011;18912;43.270;27.942;2022-10-18T10:28:13;4.35;;;1.58;;
32455;SDS011;18912;43.270;27.942;2022-10-18T10:30:42;5.60;;;1.95;;
32455;SDS011;18912;43.270;27.942;2022-10-18T10:33:28;5.78;;;1.63;;
32455;SDS011;18912;43.270;27.942;2022-10-18T10:36:04;6.57;;;1.75;;
32455;SDS011;18912;43.270;27.942;2022-10-18T10:38:40;8.18;;;1.58;;
32455;SDS011;18912;43.270;27.942;2022-10-18T10:41:21;10.87;;;1.73;;
32455;SDS011;18912;43.270;27.942;2022-10-18T10:43:48;5.95;;;1.63;;
32455;SDS011;18912;43.270;27.942;2022-10-18T10:51:37;3.88;;;1.50;;
32455;SDS011;18912;43.270;27.942;2022-10-18T10:59:28;5.03;;;1.80;;
32455;SDS011;18912;43.270;27.942;2022-10-18T11:04:45;12.65;;;2.08;;
32455;SDS011;18912;43.270;27.942;2022-10-18T11:07:25;11.32;;;1.63;;
32455;SDS011;18912;43.270;27.942;2022-10-18T11:12:41;8.60;;;2.15;;
32455;SDS011;18912;43.270;27.942;2022-10-18T11:22:39;8.35;;;2.00;;
32455;SDS011;18912;43.270;27.942;2022-10-18T11:25:20;5.00;;;1.63;;
32455;SDS011;18912;43.270;27.942;2022-10-18T11:36:15;4.15;;;2.25;;
32455;SDS011;18912;43.270;27.942;2022-10-18T11:43:56;9.32;;;1.65;;
32455;SDS011;18912;43.270;27.942;2022-10-18T11:51:36;8.35;;;4.32;;
32455;SDS011;18912;43.270;27.942;2022-10-18T11:57:14;4.18;;;1.65;;
32455;SDS011;18912;43.270;27.942;2022-10-18T12:02:56;3.40;;;1.40;;
32455;SDS011;18912;43.270;27.942;2022-10-18T12:05:23;7.32;;;1.50;;
32455;SDS011;18912;43.270;27.942;2022-10-18T12:07:55;7.30;;;1.83;;
32455;SDS011;18912;43.270;27.942;2022-10-18T12:10:22;12.27;;;6.63;;
32455;SDS011;18912;43.270;27.942;2022-10-18T12:12:55;19.13;;;4.88;;
32455;SDS011;18912;43.270;27.942;2022-10-18T12:15:26;9.27;;;3.65;;
32455;SDS011;18912;43.270;27.942;2022-10-18T12:20:30;7.55;;;2.55;;
32455;SDS011;18912;43.270;27.942;2022-10-18T12:25:23;6.83;;;1.63;;
32455;SDS011;18912;43.270;27.942;2022-10-18T12:27:52;6.80;;;1.52;;
32455;SDS011;18912;43.270;27.942;2022-10-18T12:30:52;8.85;;;2.03;;
32455;SDS011;18912;43.270;27.942;2022-10-18T12:33:33;6.57;;;1.90;;
32455;SDS011;18912;43.270;27.942;2022-10-18T12:36:17;6.45;;;1.70;;
32455;SDS011;18912;43.270;27.942;2022-10-18T12:39:00;7.82;;;1.63;;
32455;SDS011;18912;43.270;27.942;2022-10-18T12:41:31;5.50;;;2.15;;
32455;SDS011;18912;43.270;27.942;2022-10-18T12:44:02;5.88;;;2.10;;
32455;SDS011;18912;43.270;27.942;2022-10-18T12:46:43;5.10;;;2.10;;
32455;SDS011;18912;43.270;27.942;2022-10-18T12:49:12;10.38;;;1.70;;
32455;SDS011;18912;43.270;27.942;2022-10-18T12:51:51;5.05;;;1.40;;
32455;SDS011;18912;43.270;27.942;2022-10-18T12:56:59;4.40;;;1.95;;
32455;SDS011;18912;43.270;27.942;2022-10-18T13:09:22;7.22;;;1.58;;
32455;SDS011;18912;43.270;27.942;2022-10-18T13:12:43;6.85;;;1.58;;
32455;SDS011;18912;43.270;27.942;2022-10-18T13:28:29;8.15;;;1.60;;
32455;SDS011;18912;43.270;27.942;2022-10-18T13:38:41;5.38;;;1.95;;
32455;SDS011;18912;43.270;27.942;2022-10-18T13:56:54;4.40;;;1.50;;
32455;SDS011;18912;43.270;27.942;2022-10-18T13:59:37;7.82;;;2.60;;
32455;SDS011;18912;43.270;27.942;2022-10-18T14:02:33;5.53;;;1.85;;
32455;SDS011;18912;43.270;27.942;2022-10-18T14:05:19;7.97;;;1.65;;
32455;SDS011;18912;43.270;27.942;2022-10-18T14:07:48;6.07;;;1.50;;
32455;SDS011;18912;43.270;27.942;2022-10-18T14:10:19;7.50;;;1.80;;
32455;SDS011;18912;43.270;27.942;2022-10-18T14:12:51;9.20;;;1.85;;
32455;SDS011;18912;43.270;27.942;2022-10-18T14:15:25;8.73;;;1.83;;
32455;SDS011;18912;43.270;27.942;2022-10-18T14:18:05;4.10;;;1.70;;
32455;SDS011;18912;43.270;27.942;2022-10-18T14:20:40;7.68;;;1.65;;
32455;SDS011;18912;43.270;27.942;2022-10-18T14:23:19;3.83;;;1.90;;
32455;SDS011;18912;43.270;27.942;2022-10-18T14:26:13;4.32;;;1.70;;
32455;SDS011;18912;43.270;27.942;2022-10-18T14:28:40;11.00;;;2.10;;
32455;SDS011;18912;43.270;27.942;2022-10-18T14:31:10;6.23;;;1.90;;
32455;SDS011;18912;43.270;27.942;2022-10-18T14:36:13;4.47;;;1.75;;
32455;SDS011;18912;43.270;27.942;2022-10-18T14:39:19;8.82;;;2.28;;
32455;SDS011;18912;43.270;27.942;2022-10-18T14:41:55;6.70;;;1.73;;
32455;SDS011;18912;43.270;27.942;2022-10-18T14:44:25;4.57;;;1.95;;
32455;SDS011;18912;43.270;27.942;2022-10-18T14:49:41;11.05;;;2.03;;
32455;SDS011;18912;43.270;27.942;2022-10-18T14:52:11;5.45;;;1.92;;
32455;SDS011;18912;43.270;27.942;2022-10-18T14:54:44;10.75;;;1.80;;
32455;SDS011;18912;43.270;27.942;2022-10-18T14:57:18;4.75;;;1.98;;
32455;SDS011;18912;43.270;27.942;2022-10-18T14:59:47;7.15;;;2.15;;
32455;SDS011;18912;43.270;27.942;2022-10-18T15:02:27;8.43;;;2.30;;
32455;SDS011;18912;43.270;27.942;2022-10-18T15:04:56;8.73;;;2.35;;
32455;SDS011;18912;43.270;27.942;2022-10-18T15:07:23;7.07;;;1.90;;
32455;SDS011;18912;43.270;27.942;2022-10-18T15:09:54;11.80;;;2.75;;
32455;SDS011;18912;43.270;27.942;2022-10-18T15:12:22;8.20;;;2.10;;
32455;SDS011;18912;43.270;27.942;2022-10-18T15:14:48;13.43;;;2.65;;
32455;SDS011;18912;43.270;27.942;2022-10-18T15:17:20;12.35;;;2.53;;
32455;SDS011;18912;43.270;27.942;2022-10-18T15:19:54;4.70;;;2.13;;
32455;SDS011;18912;43.270;27.942;2022-10-18T15:22:29;6.05;;;1.90;;
32455;SDS011;18912;43.270;27.942;2022-10-18T15:25:08;9.35;;;2.22;;
32455;SDS011;18912;43.270;27.942;2022-10-18T15:27:51;8.57;;;2.10;;
32455;SDS011;18912;43.270;27.942;2022-10-18T15:33:00;13.77;;;2.38;;
32455;SDS011;18912;43.270;27.942;2022-10-18T15:35:28;8.07;;;1.90;;
32455;SDS011;18912;43.270;27.942;2022-10-18T15:37:57;7.32;;;2.53;;
32455;SDS011;18912;43.270;27.942;2022-10-18T15:42:56;4.23;;;2.00;;
32455;SDS011;18912;43.270;27.942;2022-10-18T15:50:43;16.15;;;2.30;;
32455;SDS011;18912;43.270;27.942;2022-10-18T15:55:49;10.02;;;2.28;;
32455;SDS011;18912;43.270;27.942;2022-10-18T15:58:43;12.57;;;2.90;;
32455;SDS011;18912;43.270;27.942;2022-10-18T16:01:33;7.88;;;2.30;;
32455;SDS011;18912;43.270;27.942;2022-10-18T16:03:56;6.35;;;2.65;;
32455;SDS011;18912;43.270;27.942;2022-10-18T16:06:22;9.35;;;2.95;;
32455;SDS011;18912;43.270;27.942;2022-10-18T16:08:49;16.50;;;4.27;;
32455;SDS011;18912;43.270;27.942;2022-10-18T16:11:17;13.60;;;3.33;;
32455;SDS011;18912;43.270;27.942;2022-10-18T16:13:47;14.48;;;3.10;;
32455;SDS011;18912;43.270;27.942;2022-10-18T16:16:21;8.45;;;3.22;;
32455;SDS011;18912;43.270;27.942;2022-10-18T16:18:48;15.15;;;3.80;;
32455;SDS011;18912;43.270;27.942;2022-10-18T16:21:15;10.15;;;3.35;;
32455;SDS011;18912;43.270;27.942;2022-10-18T16:23:43;9.07;;;3.38;;
32455;SDS011;18912;43.270;27.942;2022-10-18T16:26:10;12.37;;;4.63;;
32455;SDS011;18912;43.270;27.942;2022-10-18T16:28:35;11.65;;;3.65;;
32455;SDS011;18912;43.270;27.942;2022-10-18T16:31:01;11.43;;;4.50;;
32455;SDS011;18912;43.270;27.942;2022-10-18T16:33:28;11.70;;;3.70;;
32455;SDS011;18912;43.270;27.942;2022-10-18T16:35:54;6.18;;;2.83;;
32455;SDS011;18912;43.270;27.942;2022-10-18T16:38:28;7.40;;;2.60;;
32455;SDS011;18912;43.270;27.942;2022-10-18T16:40:57;8.88;;;2.53;;
32455;SDS011;18912;43.270;27.942;2022-10-18T16:43:23;11.10;;;2.23;;
32455;SDS011;18912;43.270;27.942;2022-10-18T16:45:50;5.47;;;2.70;;
32455;SDS011;18912;43.270;27.942;2022-10-18T16:48:18;6.15;;;2.20;;
32455;SDS011;18912;43.270;27.942;2022-10-18T16:50:45;14.70;;;2.88;;
32455;SDS011;18912;43.270;27.942;2022-10-18T16:53:12;12.70;;;3.63;;
32455;SDS011;18912;43.270;27.942;2022-10-18T16:55:38;10.83;;;3.17;;
32455;SDS011;18912;43.270;27.942;2022-10-18T16:58:05;5.65;;;2.97;;
32455;SDS011;18912;43.270;27.942;2022-10-18T17:00:31;8.52;;;2.85;;
32455;SDS011;18912;43.270;27.942;2022-10-18T17:02:57;15.40;;;2.80;;
32455;SDS011;18912;43.270;27.942;2022-10-18T17:05:23;7.90;;;2.40;;
32455;SDS011;18912;43.270;27.942;2022-10-18T17:07:49;14.37;;;2.40;;
32455;SDS011;18912;43.270;27.942;2022-10-18T17:10:16;7.37;;;2.97;;
32455;SDS011;18912;43.270;27.942;2022-10-18T17:12:44;9.77;;;3.17;;
32455;SDS011;18912;43.270;27.942;2022-10-18T17:15:10;6.38;;;2.95;;
32455;SDS011;18912;43.270;27.942;2022-10-18T17:17:37;18.20;;;3.00;;
32455;SDS011;18912;43.270;27.942;2022-10-18T17:20:04;6.53;;;2.45;;
32455;SDS011;18912;43.270;27.942;2022-10-18T17:22:31;16.38;;;3.08;;
32455;SDS011;18912;43.270;27.942;2022-10-18T17:24:57;10.07;;;2.90;;
32455;SDS011;18912;43.270;27.942;2022-10-18T17:27:23;13.50;;;3.90;;
32455;SDS011;18912;43.270;27.942;2022-10-18T17:29:48;10.87;;;2.90;;
32455;SDS011;18912;43.270;27.942;2022-10-18T17:32:14;5.23;;;2.63;;
32455;SDS011;18912;43.270;27.942;2022-10-18T17:34:39;5.03;;;2.50;;
32455;SDS011;18912;43.270;27.942;2022-10-18T17:37:05;19.70;;;2.57;;
32455;SDS011;18912;43.270;27.942;2022-10-18T17:39:30;8.73;;;2.40;;
32455;SDS011;18912;43.270;27.942;2022-10-18T17:41:56;4.37;;;2.40;;
32455;SDS011;18912;43.270;27.942;2022-10-18T17:44:23;6.28;;;2.20;;
32455;SDS011;18912;43.270;27.942;2022-10-18T17:46:48;8.73;;;2.90;;